Kanarmoor — FS4492 — position and weather

sailwx.info

Track history (hours):
 
Tides and Currents Weather Stations Pressure Air Temp Water Temp Dewpoint Dewpoint Depression Visibility Wind Speed Wind Dir Waves Ship Positions

Kanarmoor

Last reported at 2017-Nov-16 21:17 UTC. Time now 2017-Nov-18 02:41 UTC.
Position N 48°06' W 004°19'.

Length 16 m.

Type: Fishing. MMSI: 228213700.

Date/timePositionNaut miles runAvg speedWind from/ knotsBaromVisibWave heightAir tempDewpointWater temp
2017-Nov-16 21:17N 48°06' W 004°19'0 0.6
2017-Nov-16 21:00N 48°06' W 004°19'0 0.0
2017-Nov-16 20:30N 48°06' W 004°19'1 1.9
2017-Nov-16 20:00N 48°07' W 004°19'4 7.9
2017-Nov-16 19:30N 48°10' W 004°23'4 7.8
2017-Nov-16 19:00N 48°11' W 004°29'0 0.4
2017-Nov-16 18:31N 48°11' W 004°29'4 7.4
2017-Nov-16 18:00N 48°09' W 004°24'2 3.2
2017-Nov-16 17:30N 48°08' W 004°22'0 0.3
2017-Nov-16 17:01N 48°08' W 004°22'1 1.7
2017-Nov-16 16:31N 48°08' W 004°23'2 4.0
2017-Nov-16 16:00N 48°07' W 004°21'2 0.1
2017-Nov-15 21:50N 48°06' W 004°19'0 0.5
2017-Nov-15 21:30N 48°06' W 004°19'0 0.0
2017-Nov-15 21:00N 48°06' W 004°19'0 0.0
2017-Nov-15 20:30N 48°06' W 004°19'0 0.8
2017-Nov-15 20:00N 48°06' W 004°20'4 8.6
2017-Nov-15 19:31N 48°07' W 004°26'2 4.2
2017-Nov-15 19:00N 48°07' W 004°29'1 2.1
2017-Nov-15 18:31N 48°06' W 004°30'1 2.8
2017-Nov-15 18:00N 48°07' W 004°28'1 1.1
2017-Nov-15 17:30N 48°07' W 004°28'0 0.4
2017-Nov-15 17:00N 48°07' W 004°28'2 3.8
2017-Nov-15 16:30N 48°07' W 004°25'4 8.2
2017-Nov-15 16:01N 48°06' W 004°19'0 0.0
2017-Nov-14 22:50N 48°06' W 004°19'0 0.0
2017-Nov-14 22:30N 48°06' W 004°19'0 0.3
2017-Nov-14 22:00N 48°06' W 004°19'0 0.0
2017-Nov-14 21:30N 48°06' W 004°19'0 0.9
2017-Nov-14 21:00N 48°06' W 004°19'5 9.4
2017-Nov-14 20:30N 48°10' W 004°24'1 2.6
2017-Nov-14 20:00N 48°11' W 004°25'1 2.5
2017-Nov-14 19:30N 48°10' W 004°25'2 3.6
2017-Nov-14 19:00N 48°08' W 004°25'0 0.3
2017-Nov-14 18:30N 48°08' W 004°25'1 2.1
2017-Nov-14 18:00N 48°08' W 004°26'0 0.1
2017-Nov-14 17:31N 48°08' W 004°26'3 6.2
2017-Nov-14 17:00N 48°07' W 004°22'2 0.1
2017-Nov-14 00:32N 48°06' W 004°19'0 0.0
2017-Nov-14 00:30N 48°06' W 004°19'0 0.3
2017-Nov-14 00:00N 48°06' W 004°19'0 0.0
2017-Nov-13 23:31N 48°06' W 004°19'4 7.8
2017-Nov-13 23:01N 48°08' W 004°24'2 4.0
2017-Nov-13 22:31N 48°09' W 004°27'0 0.7
2017-Nov-13 22:00N 48°09' W 004°26'  
2017-Nov-10 15:07N 47°49' W 004°23'0 0.0
2017-Nov-10 14:59N 47°49' W 004°23'0 0.0
2017-Nov-10 14:30N 47°49' W 004°23'0 0.0
2017-Nov-10 10:35N 47°49' W 004°23'0 0.0
2017-Nov-10 10:30N 47°49' W 004°23'0 0.0
2017-Nov-10 10:00N 47°49' W 004°23'0 0.0
2017-Nov-09 18:21N 47°49' W 004°23'1 2.2
2017-Nov-09 18:00N 47°49' W 004°24'3 6.7
2017-Nov-09 17:30N 47°52' W 004°24'4 7.3
2017-Nov-09 17:00N 47°55' W 004°26'4 7.1
2017-Nov-09 16:30N 47°52' W 004°23'4 7.5
2017-Nov-09 16:00N 47°49' W 004°24'1 1.2
2017-Nov-09 15:30N 47°49' W 004°23'0 0.0
2017-Nov-09 13:15N 47°49' W 004°23'0 0.0
2017-Nov-09 10:04N 47°49' W 004°23'0 0.0
2017-Nov-09 10:00N 47°49' W 004°23'0 0.0
2017-Nov-09 02:50N 47°49' W 004°23'0 0.1
2017-Nov-09 01:43N 47°49' W 004°23'0 0.0
2017-Nov-08 23:51N 47°49' W 004°23'3 6.9
2017-Nov-08 23:28N 47°50' W 004°27'4 9.4
2017-Nov-08 23:00N 47°52' W 004°32'5 9.4
2017-Nov-08 22:31N 47°54' W 004°38'5 9.7
2017-Nov-08 22:00N 47°56' W 004°45'5 9.8
2017-Nov-08 21:30N 47°59' W 004°51'1 1.3
2017-Nov-08 21:01N 47°59' W 004°52'0 0.7
2017-Nov-08 20:31N 47°59' W 004°52'1 2.5
2017-Nov-08 20:00N 48°01' W 004°51'0 0.7
2017-Nov-08 19:30N 48°01' W 004°52'3 5.4
2017-Nov-08 19:00N 47°59' W 004°49'4 8.1
2017-Nov-08 18:30N 47°58' W 004°43'4 8.7
2017-Nov-08 18:01N 47°57' W 004°37'5 8.7
2017-Nov-08 17:29N 47°54' W 004°31'4 9.1
2017-Nov-08 17:00N 47°51' W 004°27'3 6.5
2017-Nov-08 16:29N 47°49' W 004°23'0 0.0
2017-Nov-08 16:00N 47°49' W 004°23'0 0.0
2017-Nov-08 15:23N 47°49' W 004°23'0 0.0
2017-Nov-07 14:46N 47°49' W 004°23'0 0.0
2017-Nov-07 14:28N 47°49' W 004°23'0 0.0
2017-Nov-07 14:00N 47°49' W 004°23'0 0.0
2017-Nov-07 10:45N 47°49' W 004°23'0 0.0
2017-Nov-07 04:33N 47°49' W 004°23'0 0.0
2017-Nov-07 04:30N 47°49' W 004°23'0 0.1
2017-Nov-07 03:59N 47°49' W 004°23'0 0.0
2017-Nov-07 03:29N 47°49' W 004°23'0 0.0
2017-Nov-07 03:00N 47°49' W 004°23'0 0.0
2017-Nov-07 02:28N 47°49' W 004°23'0 1.1
2017-Nov-07 02:00N 47°49' W 004°23'3 6.2
2017-Nov-07 01:30N 47°52' W 004°23'0 0.9
2017-Nov-07 01:00N 47°51' W 004°24'1 2.4
2017-Nov-07 00:30N 47°52' W 004°24'5 8.6
2017-Nov-06 23:58N 47°56' W 004°29'4 8.9
2017-Nov-06 23:31N 47°58' W 004°34'1 2.5
2017-Nov-06 23:01N 47°58' W 004°35'0 0.0
2017-Nov-06 22:30N 47°58' W 004°35'1 1.4
2017-Nov-06 22:00N 47°58' W 004°34'0 0.8
2017-Nov-06 21:30N 47°58' W 004°35'  
Track history (hours):
 
Tides and Currents Weather Stations Pressure Air Temp Water Temp Dewpoint Dewpoint Depression Visibility Wind Speed Wind Dir Waves Ship Positions

Kanarmoor

Last reported at 2017-Nov-16 21:17 UTC. Time now 2017-Nov-18 02:41 UTC.
Position N 48°06' W 004°19'.

Length 16 m.

Type: Fishing. MMSI: 228213700.

Date/timePositionNaut miles runAvg speedWind from/ knotsBaromVisibWave heightAir tempDewpointWater temp
2017-Nov-16 21:17N 48°06' W 004°19'0 0.6
2017-Nov-16 21:00N 48°06' W 004°19'0 0.0
2017-Nov-16 20:30N 48°06' W 004°19'1 1.9
2017-Nov-16 20:00N 48°07' W 004°19'4 7.9
2017-Nov-16 19:30N 48°10' W 004°23'4 7.8
2017-Nov-16 19:00N 48°11' W 004°29'0 0.4
2017-Nov-16 18:31N 48°11' W 004°29'4 7.4
2017-Nov-16 18:00N 48°09' W 004°24'2 3.2
2017-Nov-16 17:30N 48°08' W 004°22'0 0.3
2017-Nov-16 17:01N 48°08' W 004°22'1 1.7
2017-Nov-16 16:31N 48°08' W 004°23'2 4.0
2017-Nov-16 16:00N 48°07' W 004°21'2 0.1
2017-Nov-15 21:50N 48°06' W 004°19'0 0.5
2017-Nov-15 21:30N 48°06' W 004°19'0 0.0
2017-Nov-15 21:00N 48°06' W 004°19'0 0.0
2017-Nov-15 20:30N 48°06' W 004°19'0 0.8
2017-Nov-15 20:00N 48°06' W 004°20'4 8.6
2017-Nov-15 19:31N 48°07' W 004°26'2 4.2
2017-Nov-15 19:00N 48°07' W 004°29'1 2.1
2017-Nov-15 18:31N 48°06' W 004°30'1 2.8
2017-Nov-15 18:00N 48°07' W 004°28'1 1.1
2017-Nov-15 17:30N 48°07' W 004°28'0 0.4
2017-Nov-15 17:00N 48°07' W 004°28'2 3.8
2017-Nov-15 16:30N 48°07' W 004°25'4 8.2
2017-Nov-15 16:01N 48°06' W 004°19'0 0.0
2017-Nov-14 22:50N 48°06' W 004°19'0 0.0
2017-Nov-14 22:30N 48°06' W 004°19'0 0.3
2017-Nov-14 22:00N 48°06' W 004°19'0 0.0
2017-Nov-14 21:30N 48°06' W 004°19'0 0.9
2017-Nov-14 21:00N 48°06' W 004°19'5 9.4
2017-Nov-14 20:30N 48°10' W 004°24'1 2.6
2017-Nov-14 20:00N 48°11' W 004°25'1 2.5
2017-Nov-14 19:30N 48°10' W 004°25'2 3.6
2017-Nov-14 19:00N 48°08' W 004°25'0 0.3
2017-Nov-14 18:30N 48°08' W 004°25'1 2.1
2017-Nov-14 18:00N 48°08' W 004°26'0 0.1
2017-Nov-14 17:31N 48°08' W 004°26'3 6.2
2017-Nov-14 17:00N 48°07' W 004°22'2 0.1
2017-Nov-14 00:32N 48°06' W 004°19'0 0.0
2017-Nov-14 00:30N 48°06' W 004°19'0 0.3
2017-Nov-14 00:00N 48°06' W 004°19'0 0.0
2017-Nov-13 23:31N 48°06' W 004°19'4 7.8
2017-Nov-13 23:01N 48°08' W 004°24'2 4.0
2017-Nov-13 22:31N 48°09' W 004°27'0 0.7
2017-Nov-13 22:00N 48°09' W 004°26'  
2017-Nov-10 15:07N 47°49' W 004°23'0 0.0
2017-Nov-10 14:59N 47°49' W 004°23'0 0.0
2017-Nov-10 14:30N 47°49' W 004°23'0 0.0
2017-Nov-10 10:35N 47°49' W 004°23'0 0.0
2017-Nov-10 10:30N 47°49' W 004°23'0 0.0
2017-Nov-10 10:00N 47°49' W 004°23'0 0.0
2017-Nov-09 18:21N 47°49' W 004°23'1 2.2
2017-Nov-09 18:00N 47°49' W 004°24'3 6.7
2017-Nov-09 17:30N 47°52' W 004°24'4 7.3
2017-Nov-09 17:00N 47°55' W 004°26'4 7.1
2017-Nov-09 16:30N 47°52' W 004°23'4 7.5
2017-Nov-09 16:00N 47°49' W 004°24'1 1.2
2017-Nov-09 15:30N 47°49' W 004°23'0 0.0
2017-Nov-09 13:15N 47°49' W 004°23'0 0.0
2017-Nov-09 10:04N 47°49' W 004°23'0 0.0
2017-Nov-09 10:00N 47°49' W 004°23'0 0.0
2017-Nov-09 02:50N 47°49' W 004°23'0 0.1
2017-Nov-09 01:43N 47°49' W 004°23'0 0.0
2017-Nov-08 23:51N 47°49' W 004°23'3 6.9
2017-Nov-08 23:28N 47°50' W 004°27'4 9.4
2017-Nov-08 23:00N 47°52' W 004°32'5 9.4
2017-Nov-08 22:31N 47°54' W 004°38'5 9.7
2017-Nov-08 22:00N 47°56' W 004°45'5 9.8
2017-Nov-08 21:30N 47°59' W 004°51'1 1.3
2017-Nov-08 21:01N 47°59' W 004°52'0 0.7
2017-Nov-08 20:31N 47°59' W 004°52'1 2.5
2017-Nov-08 20:00N 48°01' W 004°51'0 0.7
2017-Nov-08 19:30N 48°01' W 004°52'3 5.4
2017-Nov-08 19:00N 47°59' W 004°49'4 8.1
2017-Nov-08 18:30N 47°58' W 004°43'4 8.7
2017-Nov-08 18:01N 47°57' W 004°37'5 8.7
2017-Nov-08 17:29N 47°54' W 004°31'4 9.1
2017-Nov-08 17:00N 47°51' W 004°27'3 6.5
2017-Nov-08 16:29N 47°49' W 004°23'0 0.0
2017-Nov-08 16:00N 47°49' W 004°23'0 0.0
2017-Nov-08 15:23N 47°49' W 004°23'0 0.0
2017-Nov-07 14:46N 47°49' W 004°23'0 0.0
2017-Nov-07 14:28N 47°49' W 004°23'0 0.0
2017-Nov-07 14:00N 47°49' W 004°23'0 0.0
2017-Nov-07 10:45N 47°49' W 004°23'0 0.0
2017-Nov-07 04:33N 47°49' W 004°23'0 0.0
2017-Nov-07 04:30N 47°49' W 004°23'0 0.1
2017-Nov-07 03:59N 47°49' W 004°23'0 0.0
2017-Nov-07 03:29N 47°49' W 004°23'0 0.0
2017-Nov-07 03:00N 47°49' W 004°23'0 0.0
2017-Nov-07 02:28N 47°49' W 004°23'0 1.1
2017-Nov-07 02:00N 47°49' W 004°23'3 6.2
2017-Nov-07 01:30N 47°52' W 004°23'0 0.9
2017-Nov-07 01:00N 47°51' W 004°24'1 2.4
2017-Nov-07 00:30N 47°52' W 004°24'5 8.6
2017-Nov-06 23:58N 47°56' W 004°29'4 8.9
2017-Nov-06 23:31N 47°58' W 004°34'1 2.5
2017-Nov-06 23:01N 47°58' W 004°35'0 0.0
2017-Nov-06 22:30N 47°58' W 004°35'1 1.4
2017-Nov-06 22:00N 47°58' W 004°34'0 0.8
2017-Nov-06 21:30N 47°58' W 004°35'  

Dump ship's entire track history